Nearby METAR Reports

Sorted by Distance from Carson Valley Weather Station - Minden, Nevada

 

KMEV - Minden, Nevada, USA
Distance from station: SSW 3mi, 5km
Updated: Thu, 13-May-2021 8:35am PDT
Clear
Clear
 Wind from calm
Wind: Calm
Temperature: 57°F , 14°C
Dew Point: 30°F , -1°C
Humidity: 36%
Barometer: 30.20 inHg , 1022.7 hPa
Clouds: Clear
Visibility: 10 miles , 16 km
2021/05/13 15:35 KMEV 131535Z AUTO 00000KT 10SM CLR 14/M01 A3020 RMK AO2
KCXP - Carson City, Nevada, USA
Distance from station: N 10mi, 16km
Updated: Thu, 13-May-2021 8:35am PDT
Clear
Clear
 Wind from calm
Wind: Calm
Temperature: 61°F , 16°C
Dew Point: 28°F , -2°C
Humidity: 29%
Barometer: 30.21 inHg , 1023 hPa
Clouds: Clear
Visibility: 10 miles , 16 km
2021/05/13 15:35 KCXP 131535Z AUTO 00000KT 10SM CLR 16/M02 A3021 RMK AO2
 
KTVL - South Lake Tahoe, California, USA
Distance from station: WSW 18mi, 29km
Updated: Thu, 13-May-2021 7:53am PDT
Clear
Clear
 Wind from calm
Wind: Calm
Temperature: 45°F , 7°C
Dew Point: 30°F , -1°C
Humidity: 57%
Barometer: 30.27 inHg , 1025.1 hPa
Clouds: Clear
Visibility: 10 miles , 16 km
2021/05/13 14:53 KTVL 131453Z AUTO 00000KT 10SM CLR 07/M01 A3027 RMK AO2 SLP214 T00671006 53005
KTRK - Truckee Tahoe, California, USA
Distance from station: NW 29mi, 46km
Updated: Thu, 13-May-2021 7:45am PDT
Clear
Clear
 Wind from calm
Wind: Calm
Temperature: 43°F , 6°C
Dew Point: 34°F , 1°C
Humidity: 71%
Barometer: 30.28 inHg , 1025.4 hPa
Clouds: Clear
Visibility: 10 miles , 16 km
2021/05/13 14:45 KTRK 131445Z AUTO 00000KT 10SM SKC 06/01 A3028
 
KRNO - Reno, Nevada, USA
Distance from station: N 32mi, 51km
Updated: Thu, 13-May-2021 7:55am PDT
Clear
Clear
 Wind from calm
Wind: Calm
Temperature: 57°F , 14°C
Dew Point: 30°F , -1°C
Humidity: 36%
Barometer: 30.19 inHg , 1022.4 hPa
Clouds: Clear
Visibility: 10 miles , 16 km
2021/05/13 14:55 KRNO 131455Z 00000KT 10SM CLR 14/M01 A3019 RMK AO2 SLP181 T01391011 53006
KRTS - Reno/Stead, Nevada, USA
Distance from station: NNW 44mi, 71km
Updated: Thu, 13-May-2021 8:35am PDT
Clear
Clear
 Wind from calm
Wind: Calm
Temperature: 61°F , 16°C
Dew Point: 30°F , -1°C
Humidity: 31%
Barometer: 30.22 inHg , 1023.4 hPa
Clouds: Clear
Visibility: 10 miles , 16 km
2021/05/13 15:35 KRTS 131535Z AUTO 00000KT 10SM CLR 16/M01 A3022 RMK AO2
 
KBAN - Bridgeport(Mcmwt, California, USA
Distance from station: SSE 49mi, 79km
Updated: Thu, 13-May-2021 7:52am PDT
Clear
Clear
 Wind from calm
Wind: Calm
Temperature: 45°F , 7°C
Dew Point: 21°F , -6°C
Humidity: 39%
Barometer: 30.27 inHg , 1025.1 hPa
Clouds: Clear
Visibility: 10 miles , 16 km
2021/05/13 14:52 KBAN 131452Z AUTO 00000KT 10SM CLR 07/M06 A3027 RMK AO2 SLP180 T00671061 50001 $
KBLU - Emigrant Gap, California, USA
Distance from station: WNW 55mi, 89km
Updated: Thu, 13-May-2021 7:52am PDT
Clear
Clear
 Wind from calm
Wind: Calm
Temperature: 64°F , 18°C
Dew Point: 28°F , -2°C
Humidity: 26%
Barometer: 30.21 inHg , 1023 hPa
Clouds: Clear
Visibility: 10 miles , 16 km
2021/05/13 14:52 KBLU 131452Z AUTO 00000KT 10SM CLR 18/M02 A3021 RMK AO2 SLP148 T01781017 53003
 
KPVF - Placerville, California, USA
Distance from station: WSW 60mi, 96km
Updated: Thu, 13-May-2021 8:35am PDT
Clear
Clear
 Wind from calm
Wind: Calm
Temperature: 73°F , 23°C
Dew Point: 36°F , 2°C
Humidity: 25%
Barometer: 30.08 inHg , 1018.6 hPa
Clouds: Clear
Visibility: 10 miles , 16 km
2021/05/13 15:35 KPVF 131535Z AUTO 00000KT 10SM CLR 23/02 A3008 RMK AO1
KNFL - Fallon Nas, Nevada, USA
Distance from station: ENE 61mi, 97km
Updated: Thu, 13-May-2021 7:56am PDT
Clear
Clear
 Wind from S
Wind: S 5 mph , 7 km/h
Temperature: 64°F , 18°C
Dew Point: 28°F , -2°C
Humidity: 26%
Barometer: 30.14 inHg , 1020.7 hPa
Clouds: Clear
Visibility: 10 miles , 16 km
2021/05/13 14:56 KNFL 131456Z 18004KT 10SM CLR 18/M02 A3014 RMK AO2 SLP172 T01831017 53009
 
KHTH - Hawthorne, Nevada, USA
Distance from station: ESE 68mi, 109km
Updated: Thu, 13-May-2021 8:35am PDT
Clear
Clear
 Wind from NNW
Wind: NNW 6 mph , 9 km/h
Temperature: 66°F , 19°C
Dew Point: 25°F , -4°C
Humidity: 21%
Barometer: 30.17 inHg , 1021.7 hPa
Clouds: Clear
Visibility: 10 miles , 16 km
2021/05/13 15:35 KHTH 131535Z AUTO 33005KT 10SM CLR 19/M04 A3017 RMK A01
KGOO - Grass Valley, California, USA
Distance from station: W 70mi, 112km
Updated: Thu, 13-May-2021 8:35am PDT
Clear
Clear
 Wind from calm
Wind: Calm
Temperature: 73°F , 23°C
Dew Point: 37°F , 3°C
Humidity: 27%
Barometer: 30.09 inHg , 1019 hPa
Clouds: Clear
Visibility: 10 miles , 16 km
2021/05/13 15:35 KGOO 131535Z AUTO 00000KT 10SM CLR 23/03 A3009 RMK A01
 
KAUN - Auburn Muni, California, USA
Distance from station: W 73mi, 118km
Updated: Thu, 13-May-2021 8:35am PDT
Clear
Clear
 Wind from E
Wind: E 8 mph , 13 km/h
Temperature: 73°F , 23°C
Dew Point: 39°F , 4°C
Humidity: 29%
Barometer: 30.02 inHg , 1016.6 hPa
Clouds: Clear
Visibility: 10 miles , 16 km
2021/05/13 15:35 KAUN 131535Z AUTO 10007KT 10SM CLR 23/04 A3002 RMK A01
KO22 - Columbia, California, USA
Distance from station: SSW 79mi, 127km
Updated: Thu, 13-May-2021 8:35am PDT
Clear
Clear
 Wind from calm
Wind: Calm
Temperature: 72°F , 22°C
Dew Point: 45°F , 7°C
Humidity: 38%
Barometer: 30.04 inHg , 1017.3 hPa
Clouds: Clear
Visibility: 10 miles , 16 km
2021/05/13 15:35 KO22 131535Z AUTO 00000KT 10SM CLR 22/07 A3004 RMK A01
 
KLHM - Lincoln, California, USA
Distance from station: W 88mi, 141km
Updated: Thu, 13-May-2021 8:35am PDT
Clear
Clear
 Wind from S
Wind: S 5 mph , 7 km/h
Temperature: 68°F , 20°C
Dew Point: 43°F , 6°C
Humidity: 40%
Barometer: 29.99 inHg , 1015.6 hPa
Clouds: Clear
Visibility: 10 miles , 16 km
2021/05/13 15:35 KLHM 131535Z AUTO 17004KT 10SM CLR 20/06 A2999 RMK AO1
KBAB - Beale Afb/Marysv, California, USA
Distance from station: W 91mi, 147km
Updated: Thu, 13-May-2021 7:58am PDT
Clear
Clear
 Wind from calm
Wind: Calm
Temperature: 66°F , 19°C
Dew Point: 45°F , 7°C
Humidity: 46%
Barometer: 29.98 inHg , 1015.2 hPa
Clouds: Clear
Visibility: 10 miles , 16 km
2021/05/13 14:58 KBAB 131458Z AUTO 00000KT 10SM CLR 19/07 A2998 RMK AO2 SLP154 T01850067 52013 $
 
KMHR - Mather Field, California, USA
Distance from station: WSW 91mi, 147km
Updated: Thu, 13-May-2021 7:45am PDT
Clear
Clear
 Wind from SE
Wind: SE 6 mph , 9 km/h
Temperature: 57°F , 14°C
Dew Point: 46°F , 8°C
Humidity: 67%
Barometer: 29.99 inHg , 1015.6 hPa
Clouds: Clear
Visibility: 10 miles , 16 km
2021/05/13 14:45 KMHR 131445Z 14005KT 10SM SKC 14/08 A2999
KLOL - Lovelock, Nevada, USA
Distance from station: NE 94mi, 151km
Updated: Thu, 13-May-2021 7:53am PDT
Clear
Clear
 Wind from calm
Wind: Calm
Temperature: 61°F , 16°C
Dew Point: 28°F , -2°C
Humidity: 29%
Barometer: 30.13 inHg , 1020.3 hPa
Clouds: Clear
Visibility: 10 miles , 16 km
2021/05/13 14:53 KLOL 131453Z AUTO 00000KT 10SM CLR 16/M02 A3013 RMK AO2 SLP171 T01611017 51011
 
KMCC - Mcclellan Afb, California, USA
Distance from station: WSW 94mi, 151km
Updated: Thu, 13-May-2021 8:35am PDT
Clear
Clear
 Wind from S
Wind: S 8 mph , 13 km/h
Temperature: 61°F , 16°C
Dew Point: 46°F , 8°C
Humidity: 59%
Barometer: 30.00 inHg , 1015.9 hPa
Clouds: Clear
Visibility: 10 miles , 16 km
2021/05/13 15:35 KMCC 131535Z AUTO 19007KT 10SM CLR 16/08 A3000 RMK AO2
KMYV - Marysville, California, USA
Distance from station: W 99mi, 159km
Updated: Thu, 13-May-2021 7:53am PDT
Clear
Clear
 Wind from S
Wind: S 9 mph , 15 km/h
Temperature: 63°F , 17°C
Dew Point: 43°F , 6°C
Humidity: 49%
Barometer: 29.99 inHg , 1015.6 hPa
Clouds: Clear
Visibility: 10 miles , 16 km
2021/05/13 14:53 KMYV 131453Z AUTO 18008KT 10SM CLR 17/06 A2999 RMK AO2 SLP160 T01720061 53013 $
 
KSVE - Susanville Muni, California, USA
Distance from station: NNW 102mi, 164km
Updated: Thu, 13-May-2021 8:15am PDT
Clear
Clear
 Wind from calm
Wind: Calm
Temperature: 61°F , 16°C
Dew Point: 34°F , 1°C
Humidity: 36%
Barometer: 30.18 inHg , 1022 hPa
Clouds: Clear
Visibility: 10 miles , 16 km
2021/05/13 15:15 KSVE 131515Z AUTO 00000KT 10SM CLR 16/01 A3018 RMK AO2
KSAC - Sacramento, California, USA
Distance from station: WSW 103mi, 165km
Updated: Thu, 13-May-2021 7:53am PDT
Clear
Clear
 Wind from SSW
Wind: SSW 9 mph , 15 km/h
Temperature: 55°F , 13°C
Dew Point: 46°F , 8°C
Humidity: 72%
Barometer: 30.00 inHg , 1015.9 hPa
Clouds: Clear
Visibility: 10 miles , 16 km
2021/05/13 14:53 KSAC 131453Z 21008KT 10SM CLR 13/08 A3000 RMK AO2 SLP158 T01280083 53011
 
KSMF - Sacramento/Metro, California, USA
Distance from station: WSW 104mi, 167km
Updated: Thu, 13-May-2021 7:53am PDT
Clear
Clear
 Wind from S
Wind: S 8 mph , 13 km/h
Temperature: 55°F , 13°C
Dew Point: 46°F , 8°C
Humidity: 72%
Barometer: 29.99 inHg , 1015.6 hPa
Clouds: Clear
Visibility: 10 miles , 16 km
2021/05/13 14:53 KSMF 131453Z 17007KT 10SM CLR 13/08 A2999 RMK AO2 SLP153 T01330083 53012
KOVE - Oroville, California, USA
Distance from station: WNW 106mi, 171km
Updated: Thu, 13-May-2021 7:53am PDT
Clear
Clear
 Wind from ESE
Wind: ESE 5 mph , 7 km/h
Temperature: 66°F , 19°C
Dew Point: 43°F , 6°C
Humidity: 43%
Barometer: 30.01 inHg , 1016.3 hPa
Clouds: Clear
Visibility: 10 miles , 16 km
2021/05/13 14:53 KOVE 131453Z AUTO 12004KT 10SM CLR 19/06 A3001 RMK AO2 SLP162 T01890061 53014
 
KMMH - Mammoth/June Lak, California, USA
Distance from station: SSE 110mi, 177km
Updated: Thu, 13-May-2021 8:18am PDT
Clear
Clear
 Wind from calm
Wind: Calm
Temperature: 57°F , 14°C
Dew Point: 18°F , -8°C
Humidity: 21%
Barometer: 30.30 inHg , 1026.1 hPa
Clouds: Clear
Visibility: 10 miles , 16 km
2021/05/13 15:18 KMMH 131518Z AUTO 00000KT 10SM CLR 14/M08 A3030 RMK AO2
KSCK - Stockton, California, USA
Distance from station: SW 114mi, 183km
Updated: Thu, 13-May-2021 7:55am PDT
Clear
Clear
 Wind from NW
Wind: NW 6 mph , 9 km/h
Temperature: 57°F , 14°C
Dew Point: 48°F , 9°C
Humidity: 72%
Barometer: 30.00 inHg , 1015.9 hPa
Clouds: Clear
Visibility: 10 miles , 16 km
2021/05/13 14:55 KSCK 131455Z 31005KT 10SM CLR 14/09 A3000 RMK AO2 SLP158 T01440094 53010
 
KEDU - Davis, California, USA
Distance from station: WSW 116mi, 187km
Updated: Thu, 13-May-2021 8:35am PDT
Clear
Clear
 Wind from calm
Wind: Calm
Barometer: 29.99 inHg , 1015.6 hPa
Clouds: Clear
Visibility: 10 miles , 16 km
2021/05/13 15:35 KEDU 131535Z AUTO 00000KT 10SM CLR A2999 RMK AO1
KMOD - Modesto, California, USA
Distance from station: SW 119mi, 191km
Updated: Thu, 13-May-2021 7:53am PDT
Clear
Clear
 Wind from NNW
Wind: NNW 8 mph , 13 km/h
Temperature: 61°F , 16°C
Dew Point: 45°F , 7°C
Humidity: 55%
Barometer: 29.98 inHg , 1015.2 hPa
Clouds: Clear
Visibility: 10 miles , 16 km
2021/05/13 14:53 KMOD 131453Z 33007KT 10SM CLR 16/07 A2998 RMK AO2 SLP152 T01610072 53008
 
KMER - Merced/Castle Af, California, USA
Distance from station: SSW 123mi, 198km
Updated: Thu, 13-May-2021 7:45am PDT
Clear
Clear
 Wind from NW
Wind: NW 9 mph , 15 km/h
Temperature: 64°F , 18°C
Dew Point: 41°F , 5°C
Humidity: 43%
Barometer: 29.98 inHg , 1015.2 hPa
Clouds: Clear
Visibility: 10 miles , 16 km
2021/05/13 14:45 KMER 131445Z 32008KT 10SM SKC 18/05 A2998
KCIC - Chico Municipal, California, USA
Distance from station: WNW 124mi, 199km
Updated: Thu, 13-May-2021 7:47am PDT
Clear
Clear
 Wind from varies
Wind: varies 6 mph , 9 km/h
Temperature: 68°F , 20°C
Dew Point: 43°F , 6°C
Humidity: 40%
Barometer: 30.01 inHg , 1016.3 hPa
Clouds: Clear
Visibility: 40 miles , 64 km
2021/05/13 14:47 KCIC 131447Z VRB05KT 40SM SKC 20/06 A3001
 
KMCE - Merced, California, USA
Distance from station: SSW 128mi, 207km
Updated: Thu, 13-May-2021 7:53am PDT
Clear
Clear
 Wind from NW
Wind: NW 9 mph , 15 km/h
Temperature: 66°F , 19°C
Dew Point: 43°F , 6°C
Humidity: 43%
Barometer: 29.97 inHg , 1014.9 hPa
Clouds: Clear
Visibility: 10 miles , 16 km
2021/05/13 14:53 KMCE 131453Z AUTO 32008KT 10SM CLR 19/06 A2997 RMK AO2 SLP147 T01890061 53008
KVCB - Vacaville, California, USA
Distance from station: WSW 128mi, 207km
Updated: Thu, 13-May-2021 7:53am PDT
Clear
Clear
 Wind from W
Wind: W 6 mph , 9 km/h
Temperature: 61°F , 16°C
Dew Point: 45°F , 7°C
Humidity: 55%
Barometer: 30.00 inHg , 1015.9 hPa
Clouds: Clear
Visibility: 10 miles , 16 km
2021/05/13 14:53 KVCB 131453Z AUTO 26005KT 10SM CLR 16/07 A3000 RMK AO2 SLP156 T01560072 53016
 
KSUU - Travis Afb/Fairf, California, USA
Distance from station: WSW 130mi, 209km
Updated: Thu, 13-May-2021 7:58am PDT
Clear
Clear
 Wind from SW
Wind: SW 26 mph , 43 km/h, Gust: 32 mph , 52 km/h
Temperature: 54°F , 12°C
Dew Point: 46°F , 8°C
Humidity: 77%
Barometer: 29.98 inHg , 1015.2 hPa
Clouds: Clear
Visibility: 10 miles , 16 km
2021/05/13 14:58 KSUU 131458Z AUTO 22023G28KT 10SM CLR 12/08 A2998 RMK AO2 PK WND 24029/00 SLP159 T01180077 53012 $
KBIH - Bishop, California, USA
Distance from station: SE 137mi, 221km
Updated: Thu, 13-May-2021 7:56am PDT
Clear
Clear
 Wind from WNW
Wind: WNW 3 mph , 6 km/h
Temperature: 64°F , 18°C
Dew Point: 25°F , -4°C
Humidity: 22%
Barometer: 30.13 inHg , 1020.3 hPa
Clouds: Clear
Visibility: 10 miles , 16 km
2021/05/13 14:56 KBIH 131456Z AUTO 30003KT 10SM CLR 18/M04 A3013 RMK AO2 SLP156 T01831039 53009
 
KMAE - Madera, California, USA
Distance from station: S 144mi, 231km
Updated: Thu, 13-May-2021 7:53am PDT
Clear
Clear
 Wind from W
Wind: W 6 mph , 9 km/h
Temperature: 64°F , 18°C
Dew Point: 46°F , 8°C
Humidity: 52%
Barometer: 29.98 inHg , 1015.2 hPa
Clouds: Clear
Visibility: 10 miles , 16 km
2021/05/13 14:53 KMAE 131453Z AUTO 28005KT 10SM CLR 18/08 A2998 RMK AO2 SLP151 T01830078 53009
KCCR - Concord, California, USA
Distance from station: WSW 145mi, 233km
Updated: Thu, 13-May-2021 7:53am PDT
Clear
Clear
 Wind from WSW
Wind: WSW 3 mph , 6 km/h
Temperature: 55°F , 13°C
Dew Point: 46°F , 8°C
Humidity: 72%
Barometer: 30.04 inHg , 1017.3 hPa
Clouds: Clear
Visibility: 10 miles , 16 km
2021/05/13 14:53 KCCR 131453Z 25003KT 10SM CLR 13/08 A3004 RMK AO2 SLP158 T01280078 53007
 
KLVK - Livermore, California, USA
Distance from station: SW 146mi, 236km
Updated: Thu, 13-May-2021 7:53am PDT
Overcast
Overcast
 Wind from WNW
Wind: WNW 6 mph , 9 km/h
Temperature: 55°F , 13°C
Dew Point: 48°F , 9°C
Humidity: 77%
Barometer: 30.04 inHg , 1017.3 hPa
Clouds: Overcast
Visibility: 8 miles , 13 km
Cloud details: Overcast 1000 ft
2021/05/13 14:53 KLVK 131453Z 30005KT 8SM OVC010 13/09 A3004 RMK AO2 SLP171 T01280094 53008
KAPC - Napa, California, USA
Distance from station: WSW 150mi, 241km
Updated: Thu, 13-May-2021 7:54am PDT
Overcast
Overcast
 Wind from WNW
Wind: WNW 7 mph , 11 km/h
Temperature: 48°F , 9°C
Wind Chill: 45°F , 7°C
Dew Point: 46°F , 8°C
Humidity: 94%
Barometer: 30.06 inHg , 1017.9 hPa
Clouds: Overcast
Visibility: 10 miles , 16 km
Cloud details: Overcast 600 ft
2021/05/13 14:54 KAPC 131454Z 30006KT 10SM OVC006 09/08 A3006 RMK AO2 SLP170 T00940078 53007
 
KRBL - Red Bluff, California, USA
Distance from station: WNW 155mi, 249km
Updated: Thu, 13-May-2021 7:54am PDT
Clear
Clear
 Wind from calm
Wind: Calm
Temperature: 70°F , 21°C
Dew Point: 45°F , 7°C
Humidity: 40%
Barometer: 30.00 inHg , 1015.9 hPa
Clouds: Clear
Visibility: 10 miles , 16 km
2021/05/13 14:54 KRBL 131454Z AUTO 00000KT 10SM CLR 21/07 A3000 RMK AO2 SLP156 T02060067 53015
KFAT - Fresno, California, USA
Distance from station: S 156mi, 251km
Updated: Thu, 13-May-2021 7:53am PDT
Clear
Clear
 Wind from WNW
Wind: WNW 3 mph , 6 km/h
Temperature: 70°F , 21°C
Dew Point: 43°F , 6°C
Humidity: 38%
Barometer: 29.98 inHg , 1015.2 hPa
Clouds: Clear
Visibility: 10 miles , 16 km
2021/05/13 14:53 KFAT 131453Z 30003KT 10SM CLR 21/06 A2998 RMK AO2 SLP147 T02110056 53009
 
KTPH - Tonopah, Nevada, USA
Distance from station: ESE 158mi, 254km
Updated: Thu, 13-May-2021 7:56am PDT
Clear
Clear
 Wind from N
Wind: N 7 mph , 11 km/h
Temperature: 63°F , 17°C
Dew Point: 10°F , -12°C
Humidity: 13%
Barometer: 30.20 inHg , 1022.7 hPa
Clouds: Clear
Visibility: 10 miles , 16 km
2021/05/13 14:56 KTPH 131456Z AUTO 35006KT 10SM CLR 17/M12 A3020 RMK AO2 SLP161 T01671117 53008
KFCH - Fresno Chandler, California, USA
Distance from station: S 161mi, 258km
Updated: Thu, 14-May-2020 3:35am PDT
NOT Current
Few Clouds
Few Clouds
 Wind from NW
Wind: NW 13 mph , 20 km/h
Temperature: 59°F , 15°C
Dew Point: 48°F , 9°C
Humidity: 68%
Barometer: 30.06 inHg , 1017.9 hPa
Clouds: Few Clouds
Visibility: 10 miles , 16 km
Cloud details: Few Clouds 2900 ft
2020/05/14 10:35 KFCH 141035Z AUTO 32011KT 10SM FEW029 15/09 A3006 RMK A01
 
KHWD - Hayward, California, USA
Distance from station: SW 161mi, 259km
Updated: Thu, 13-May-2021 7:54am PDT
Overcast
Overcast
 Wind from WNW
Wind: WNW 6 mph , 9 km/h
Temperature: 54°F , 12°C
Dew Point: 48°F , 9°C
Humidity: 82%
Barometer: 30.06 inHg , 1017.9 hPa
Clouds: Overcast
Visibility: 10 miles , 16 km
Cloud details: Overcast 1000 ft
2021/05/13 14:54 KHWD 131454Z 30005KT 10SM OVC010 12/09 A3006 RMK AO2 SLP190 T01170089 51009
KOAK - Oakland, California, USA
Distance from station: SW 164mi, 264km
Updated: Thu, 13-May-2021 7:53am PDT
Overcast
Overcast
 Wind from WSW
Wind: WSW 3 mph , 6 km/h
Temperature: 52°F , 11°C
Dew Point: 48°F , 9°C
Humidity: 88%
Barometer: 30.07 inHg , 1018.3 hPa
Clouds: Overcast
Visibility: 10 miles , 16 km
Cloud details: Overcast 700 ft
2021/05/13 14:53 KOAK 131453Z 25003KT 10SM OVC007 11/09 A3007 RMK AO2 SLP183 T01110089 53008
 
KWMC - Winnemucca, Nevada, USA
Distance from station: NE 164mi, 264km
Updated: Thu, 13-May-2021 7:56am PDT
Clear
Clear
 Wind from calm
Wind: Calm
Temperature: 63°F , 17°C
Dew Point: 27°F , -3°C
Humidity: 25%
Barometer: 30.15 inHg , 1021 hPa
Clouds: Clear
Visibility: 10 miles , 16 km
2021/05/13 14:56 KWMC 131456Z AUTO 00000KT 10SM CLR 17/M03 A3015 RMK AO2 SLP170 T01721028 52012
KDVO - Novato/Gnoss Fld, California, USA
Distance from station: WSW 165mi, 265km
Updated: Thu, 13-May-2021 8:35am PDT
Overcast
Overcast
 Wind from calm
Wind: Calm
Temperature: 52°F , 11°C
Dew Point: 48°F , 9°C
Humidity: 88%
Barometer: 30.07 inHg , 1018.3 hPa
Clouds: Overcast
Visibility: 10 miles , 16 km
Cloud details: Overcast 1000 ft
2021/05/13 15:35 KDVO 131535Z AUTO 00000KT 10SM OVC010 11/09 A3007 RMK AO2
 
KO69 - Petaluma, California, USA
Distance from station: WSW 165mi, 265km
Updated: Thu, 13-May-2021 8:00am PDT
Overcast
Overcast
 Wind from varies
Wind: varies 5 mph , 7 km/h
Temperature: 48°F , 9°C
Wind Chill: 46°F , 8°C
Dew Point: 48°F , 9°C
Humidity: 100%
Barometer: 30.07 inHg , 1018.3 hPa
Clouds: Overcast
Visibility: 7 miles , 11 km
Cloud details: Overcast 500 ft
2021/05/13 15:00 KO69 131500Z AUTO VRB04KT 7SM OVC005 09/09 A3007 RMK A01
KRHV - San Jose/Reid, California, USA
Distance from station: SW 165mi, 265km
Updated: Thu, 13-May-2021 7:47am PDT
Overcast
Overcast
 Wind from SSE
Wind: SSE 8 mph , 13 km/h
Temperature: 52°F , 11°C
Dew Point: 48°F , 9°C
Humidity: 88%
Barometer: 30.07 inHg , 1018.3 hPa
Clouds: Overcast
Visibility: 8 miles , 13 km
Cloud details: Overcast 1000 ft
2021/05/13 14:47 KRHV 131447Z 16007KT 8SM OVC010 11/09 A3007
 
KSJC - San Jose, California, USA
Distance from station: SW 166mi, 267km
Updated: Thu, 13-May-2021 7:53am PDT
Overcast
Overcast
 Wind from SE
Wind: SE 6 mph , 9 km/h
Temperature: 54°F , 12°C
Dew Point: 48°F , 9°C
Humidity: 82%
Barometer: 30.06 inHg , 1017.9 hPa
Clouds: Overcast
Visibility: 7 miles , 11 km
Cloud details: Few Clouds 400 ft
Mostly cloudy 1000 ft
Overcast 1300 ft
2021/05/13 14:53 KSJC 131453Z 14005KT 7SM FEW004 BKN010 OVC013 12/09 A3006 RMK AO2 SLP179 T01220094 53009
KE16 - San Martin, California, USA
Distance from station: SW 169mi, 273km
Updated: Thu, 13-May-2021 8:15am PDT
Overcast
Overcast
 Wind from ESE
Wind: ESE 7 mph , 11 km/h
Temperature: 48°F , 9°C
Wind Chill: 45°F , 7°C
Dew Point: 48°F , 9°C
Humidity: 100%
Barometer: 30.10 inHg , 1019.3 hPa
Clouds: Overcast
Visibility: 10 miles , 16 km
Cloud details: Overcast 400 ft
2021/05/13 15:15 KE16 131515Z AUTO 11006KT 10SM OVC004 09/09 A3010 RMK AO2 PWINO PNO
 
KPAO - Palo Alto, California, USA
Distance from station: SW 169mi, 273km
Updated: Thu, 13-May-2021 7:47am PDT
Overcast
Overcast
 Wind from calm
Wind: Calm
Temperature: 55°F , 13°C
Dew Point: 50°F , 10°C
Humidity: 82%
Barometer: 30.07 inHg , 1018.3 hPa
Clouds: Overcast
Visibility: 10 miles , 16 km
Cloud details: Overcast 1100 ft
2021/05/13 14:47 KPAO 131447Z 00000KT 10SM OVC011 13/10 A3007
KNUQ - Moffett Nas/Mtn, California, USA
Distance from station: SW 170mi, 273km
Updated: Tue, 13-Apr-2021 3:40pm PDT
NOT Current

 
2021/04/13 22:40 KNUQ 132240Z AUTO RMK AO2 PNO PWINO TSNO
 
KRDD - Redding, California, USA
Distance from station: NW 171mi, 275km
Updated: Thu, 13-May-2021 7:53am PDT
Clear
Clear
 Wind from calm
Wind: Calm
Temperature: 66°F , 19°C
Dew Point: 45°F , 7°C
Humidity: 46%
Barometer: 29.99 inHg , 1015.6 hPa
Clouds: Clear
Visibility: 10 miles , 16 km
2021/05/13 14:53 KRDD 131453Z 00000KT 10SM CLR 19/07 A2999 RMK AO2 SLP150 T01940072 53012
KSTS - Santa Rosa, California, USA
Distance from station: WSW 171mi, 275km
Updated: Thu, 13-May-2021 7:53am PDT
Overcast
Overcast
 Wind from W
Wind: W 3 mph , 6 km/h
Temperature: 46°F , 8°C
Dew Point: 45°F , 7°C
Humidity: 93%
Barometer: 30.07 inHg , 1018.3 hPa
Clouds: Overcast
Visibility: 7 miles , 11 km
Cloud details: Overcast 400 ft
2021/05/13 14:53 KSTS 131453Z 27003KT 7SM OVC004 08/07 A3007 RMK AO2 SLP176 T00830072 53007
 
KSQL - San Carlos Airpo, California, USA
Distance from station: SW 173mi, 278km
Updated: Thu, 13-May-2021 7:56am PDT
Overcast
Overcast
 Wind from calm
Wind: Calm
Temperature: 55°F , 13°C
Dew Point: 48°F , 9°C
Humidity: 77%
Barometer: 30.07 inHg , 1018.3 hPa
Clouds: Overcast
Visibility: 10 miles , 16 km
Cloud details: Overcast 1200 ft
2021/05/13 14:56 KSQL 131456Z 00000KT 10SM OVC012 13/09 A3007
KCVH - Hollister Muni, California, USA
Distance from station: SSW 174mi, 280km
Updated: Thu, 13-May-2021 8:35am PDT
Overcast
Overcast
 Wind from calm
Wind: Calm
Temperature: 50°F , 10°C
Dew Point: 48°F , 9°C
Humidity: 94%
Barometer: 30.09 inHg , 1019 hPa
Clouds: Overcast
Visibility: 7 miles , 11 km
Cloud details: Overcast 300 ft
2021/05/13 15:35 KCVH 131535Z AUTO 00000KT 7SM OVC003 10/09 A3009 RMK A01
 
KSFO - San Francisco, California, USA
Distance from station: SW 174mi, 280km
Updated: Thu, 13-May-2021 7:56am PDT
Overcast
Overcast
 Wind from NW
Wind: NW 6 mph , 9 km/h
Temperature: 54°F , 12°C
Dew Point: 46°F , 8°C
Humidity: 77%
Barometer: 30.06 inHg , 1017.9 hPa
Clouds: Overcast
Visibility: 9 miles , 14 km
Cloud details: Few Clouds 600 ft
Overcast 1200 ft
2021/05/13 14:56 KSFO 131456Z 31005KT 9SM FEW006 OVC012 12/08 A3006 RMK AO2 SLP180 T01220083 53007
KAAT - Alturas, California, USA
Distance from station: NNW 175mi, 281km
Updated: Thu, 13-May-2021 7:55am PDT
Clear
Clear
 Wind from calm
Wind: Calm
Temperature: 55°F , 13°C
Dew Point: 34°F , 1°C
Humidity: 44%
Barometer: 30.18 inHg , 1022 hPa
Clouds: Clear
Visibility: 10 miles , 16 km
2021/05/13 14:55 KAAT 131455Z AUTO 00000KT 10SM CLR 13/01 A3018 RMK AO2 SLP185 T01330011 51004
 
KBAM - Battle Mtn (vor), Nevada, USA
Distance from station: NE 182mi, 294km
Updated: Thu, 13-May-2021 8:35am PDT
Clear
Clear
 Wind from calm
Wind: Calm
Temperature: 66°F , 19°C
Dew Point: 21°F , -6°C
Humidity: 18%
Barometer: 30.16 inHg , 1021.3 hPa
Clouds: Clear
Visibility: 10 miles , 16 km
2021/05/13 15:35 KBAM 131535Z AUTO 00000KT 10SM CLR 19/M06 A3016 RMK AO1
KHAF - Half Moon Bay, California, USA
Distance from station: SW 184mi, 296km
Updated: Thu, 13-May-2021 8:35am PDT
Mist, Overcast
Mist, Overcast
 Wind from S
Wind: S 6 mph , 9 km/h
Temperature: 48°F , 9°C
Wind Chill: 45°F , 7°C
Dew Point: 46°F , 8°C
Humidity: 94%
Barometer: 30.09 inHg , 1019 hPa
Summary: Mist
Clouds: Overcast
Visibility: 5 miles , 8 km
Cloud details: Overcast 500 ft
2021/05/13 15:35 KHAF 131535Z AUTO 19005KT 5SM BR OVC005 09/08 A3009 RMK AO2
 
KWVI - Watsonville, California, USA
Distance from station: SW 184mi, 296km
Updated: Thu, 13-May-2021 7:53am PDT
Overcast
Overcast
 Wind from SW
Wind: SW 3 mph , 6 km/h
Temperature: 50°F , 10°C
Dew Point: 48°F , 9°C
Humidity: 94%
Barometer: 30.09 inHg , 1019 hPa
Clouds: Overcast
Visibility: 7 miles , 11 km
Cloud details: Overcast 400 ft
2021/05/13 14:53 KWVI 131453Z AUTO 23003KT 7SM OVC004 10/09 A3009 RMK AO2 SLP187 T01000094 53008
KUKI - Ukiah, California, USA
Distance from station: W 187mi, 300km
Updated: Thu, 13-May-2021 7:56am PDT
Clear
Clear
 Wind from varies
Wind: varies 5 mph , 7 km/h
Temperature: 52°F , 11°C
Dew Point: 45°F , 7°C
Humidity: 77%
Barometer: 30.04 inHg , 1017.3 hPa
Clouds: Clear
Visibility: 10 miles , 16 km
2021/05/13 14:56 KUKI 131456Z AUTO VRB04KT 10SM CLR 11/07 A3004 RMK AO2 SLP165 T01110072 53008
 
KHJO - Hanford, California, USA
Distance from station: S 188mi, 303km
Updated: Thu, 13-May-2021 7:53am PDT
Clear
Clear
 Wind from WNW
Wind: WNW 6 mph , 9 km/h
Temperature: 70°F , 21°C
Dew Point: 46°F , 8°C
Humidity: 43%
Barometer: 29.99 inHg , 1015.6 hPa
Clouds: Clear
Visibility: 10 miles , 16 km
2021/05/13 14:53 KHJO 131453Z AUTO 30005KT 10SM CLR 21/08 A2999 RMK AO2 SLP154 T02060078 53011
KNLC - Lemoore Nas/Reev, California, USA
Distance from station: S 188mi, 303km
Updated: Thu, 13-May-2021 7:56am PDT
Few Clouds
Few Clouds
 Wind from WNW
Wind: WNW 8 mph , 13 km/h
Temperature: 70°F , 21°C
Dew Point: 45°F , 7°C
Humidity: 40%
Barometer: 29.99 inHg , 1015.6 hPa
Clouds: Few Clouds
Visibility: 10 miles , 16 km
Cloud details: Few Clouds 22000 ft
2021/05/13 14:56 KNLC 131456Z 30007KT 10SM FEW220 21/07 A2999 RMK AO2 SLP153 RH/41 T02060067 53010
 
KVIS - Visalia Muni, California, USA
Distance from station: S 189mi, 304km
Updated: Thu, 13-May-2021 7:56am PDT
Clear
Clear
 Wind from SSE
Wind: SSE 3 mph , 6 km/h
Temperature: 64°F , 18°C
Dew Point: 52°F , 11°C
Humidity: 64%
Barometer: 29.99 inHg , 1015.6 hPa
Clouds: Clear
Visibility: 10 miles , 16 km
2021/05/13 14:56 KVIS 131456Z AUTO 15003KT 10SM CLR 18/11 A2999 RMK AO2 SLP159 T01780111 53013
KSNS - Salinas, California, USA
Distance from station: SSW 193mi, 311km
Updated: Thu, 13-May-2021 7:53am PDT
Overcast
Overcast
 Wind from NNW
Wind: NNW 6 mph , 9 km/h
Temperature: 52°F , 11°C
Dew Point: 48°F , 9°C
Humidity: 88%
Barometer: 30.08 inHg , 1018.6 hPa
Clouds: Overcast
Visibility: 9 miles , 14 km
Cloud details: Overcast 500 ft
2021/05/13 14:53 KSNS 131453Z 33005KT 9SM OVC005 11/09 A3008 RMK AO2 SLP194 T01060089 53009
 
K05U - Eureka, Nevada, USA
Distance from station: ENE 203mi, 326km
Updated: Wed, 21-Apr-2021 4:50pm PDT
NOT Current
Mist, Mostly cloudy
Mist, Mostly cloudy
 Wind from calm
Wind: Calm
Temperature: 43°F , 6°C
Dew Point: 39°F , 4°C
Humidity: 87%
Barometer: 29.89 inHg , 1012.2 hPa
Summary: Mist
Clouds: Mostly cloudy
Visibility: 4 miles , 6 km
Cloud details: Mostly cloudy 1700 ft
2021/04/21 23:50 K05U 212350Z AUTO 00000KT 4SM BR BKN017 06/04 A2989 RMK A01
KP68 - Eureka, Nevada, USA
Distance from station: ENE 203mi, 326km
Updated: Thu, 13-May-2021 7:53am PDT

 Wind from SSW
Wind: SSW 5 mph , 7 km/h
Temperature: 57°F , 14°C
Dew Point: 21°F , -6°C
Humidity: 25%
Barometer: 30.22 inHg , 1023.4 hPa
2021/05/13 14:53 KP68 131453Z AUTO 20004KT 14/M06 A3022 RMK AO1 SLP174 T01441056 51010
 
KMRY - Monterey, California, USA
Distance from station: SW 206mi, 331km
Updated: Thu, 13-May-2021 8:05am PDT
Mist, Overcast
Mist, Overcast
 Wind from NW
Wind: NW 5 mph , 7 km/h
Temperature: 52°F , 11°C
Dew Point: 48°F , 9°C
Humidity: 88%
Barometer: 30.09 inHg , 1019 hPa
Summary: Mist
Clouds: Overcast
Visibility: 6 miles , 10 km
Cloud details: Overcast 400 ft
2021/05/13 15:05 KMRY 131505Z 32004KT 6SM BR OVC004 11/09 A3009 RMK AO2 T01110089
KO54 - Weaverville, California, USA
Distance from station: NW 207mi, 332km
Updated: Wed, 12-Aug-2020 11:15am PDT
NOT Current
Clear
Clear
 Wind from S
Wind: S 3 mph , 6 km/h
Temperature: 77°F , 25°C
Dew Point: 41°F , 5°C
Humidity: 28%
Barometer: 30.01 inHg , 1016.3 hPa
Clouds: Clear
Visibility: 10 miles , 16 km
2020/08/12 18:15 KO54 121815Z AUTO 17003KT 10SM CLR 25/05 A3001 RMK AO1
 
KO86 - Trinity Center, California, USA
Distance from station: NW 207mi, 333km
Updated: Fri, 25-Sep-2020 1:50am PDT
NOT Current
Mostly cloudy
Mostly cloudy
 Wind from W
Wind: W 5 mph , 7 km/h
Temperature: 50°F , 10°C
Wind Chill: 48°F , 9°C
Dew Point: 41°F , 5°C
Humidity: 71%
Barometer: 30.06 inHg , 1017.9 hPa
Clouds: Mostly cloudy
Visibility: 10 miles , 16 km
Cloud details: Mostly cloudy 4000 ft
2020/09/25 08:50 KO86 250850Z AUTO 27004KT 10SM BKN040 10/05 A3006 RMK AO1
KMHS - Mount Shasta, California, USA
Distance from station: NW 209mi, 336km
Updated: Thu, 13-May-2021 7:56am PDT
Clear
Clear
 Wind from calm
Wind: Calm
Temperature: 61°F , 16°C
Dew Point: 43°F , 6°C
Humidity: 52%
Barometer: 30.13 inHg , 1020.3 hPa
Clouds: Clear
Visibility: 10 miles , 16 km
2021/05/13 14:56 KMHS 131456Z AUTO 00000KT 10SM CLR 16/06 A3013 RMK AO2 SLP192 T01560056 53004
 
KPTV - Porterville, California, USA
Distance from station: S 212mi, 341km
Updated: Thu, 13-May-2021 7:56am PDT
Clear
Clear
 Wind from S
Wind: S 7 mph , 11 km/h
Temperature: 68°F , 20°C
Dew Point: 46°F , 8°C
Humidity: 46%
Barometer: 30.01 inHg , 1016.3 hPa
Clouds: Clear
Visibility: 10 miles , 16 km
2021/05/13 14:56 KPTV 131456Z AUTO 19006KT 10SM CLR 20/08 A3001 RMK AO2 SLP157 T02000083 53014
KLKV - Lakeview, Oregon, USA
Distance from station: N 219mi, 353km
Updated: Thu, 13-May-2021 7:53am PDT
Clear
Clear
 Wind from calm
Wind: Calm
Temperature: 52°F , 11°C
Dew Point: 36°F , 2°C
Humidity: 54%
Barometer: 30.20 inHg , 1022.7 hPa
Clouds: Clear
Visibility: 10 miles , 16 km
2021/05/13 14:53 KLKV 131453Z AUTO 00000KT 10SM CLR 11/02 A3020 RMK AO2 SLP201 T01110022 53006
 
KSIY - Montague/Siskiyo, California, USA
Distance from station: NW 237mi, 382km
Updated: Thu, 13-May-2021 7:53am PDT
Clear
Clear
 Wind from NNE
Wind: NNE 6 mph , 9 km/h
Temperature: 59°F , 15°C
Dew Point: 37°F , 3°C
Humidity: 45%
Barometer: 30.13 inHg , 1020.3 hPa
Clouds: Clear
Visibility: 10 miles , 16 km
2021/05/13 14:53 KSIY 131453Z AUTO 03005KT 10SM CLR 15/03 A3013 RMK AO2 SLP194 T01500028 53007
KPRB - Paso Robles, California, USA
Distance from station: SSW 238mi, 383km
Updated: Thu, 13-May-2021 8:15am PDT
Mist, Overcast
Mist, Overcast
 Wind from calm
Wind: Calm
Temperature: 50°F , 10°C
Dew Point: 46°F , 8°C
Humidity: 88%
Barometer: 30.06 inHg , 1017.9 hPa
Summary: Mist
Clouds: Overcast
Visibility: 6 miles , 10 km
Cloud details: Overcast 200 ft
2021/05/13 15:15 KPRB 131515Z AUTO 00000KT 6SM BR OVC002 10/08 A3006 RMK AO2 T01000083
 
KLMT - Klamath Falls, Oregon, USA
Distance from station: NNW 239mi, 385km
Updated: Thu, 13-May-2021 7:53am PDT
Clear
Clear
 Wind from NNW
Wind: NNW 8 mph , 13 km/h
Temperature: 57°F , 14°C
Dew Point: 43°F , 6°C
Humidity: 59%
Barometer: 30.16 inHg , 1021.3 hPa
Clouds: Clear
Visibility: 10 miles , 16 km
2021/05/13 14:53 KLMT 131453Z 34007KT 10SM CLR 14/06 A3016 RMK AO2 SLP179 T01390056 53005
KEKO - Elko, Nevada, USA
Distance from station: ENE 242mi, 390km
Updated: Thu, 13-May-2021 7:56am PDT
Clear
Clear
 Wind from calm
Wind: Calm
Temperature: 50°F , 10°C
Dew Point: 19°F , -7°C
Humidity: 30%
Barometer: 30.19 inHg , 1022.4 hPa
Clouds: Clear
Visibility: 10 miles , 16 km
2021/05/13 14:56 KEKO 131456Z AUTO 00000KT 10SM CLR 10/M07 A3019 RMK AO2 SLP190 T01001067 51008
 
KBFL - Bakersfield, California, USA
Distance from station: S 252mi, 405km
Updated: Thu, 13-May-2021 7:54am PDT
Clear
Clear
 Wind from calm
Wind: Calm
Temperature: 72°F , 22°C
Dew Point: 41°F , 5°C
Humidity: 33%
Barometer: 30.00 inHg , 1015.9 hPa
Clouds: Clear
Visibility: 7 miles , 11 km
2021/05/13 14:54 KBFL 131454Z 00000KT 7SM CLR 22/05 A3000 RMK AO2 SLP151 T02220050 52012
KFOT - Fortuna, California, USA
Distance from station: WNW 256mi, 413km
Updated: Thu, 13-May-2021 8:30am PDT
Overcast
Overcast
 Wind from calm
Wind: Calm
Temperature: 46°F , 8°C
Dew Point: 46°F , 8°C
Humidity: 100%
Barometer: 30.10 inHg , 1019.3 hPa
Clouds: Overcast
Visibility: 10 miles , 16 km
Cloud details: Overcast 400 ft
2021/05/13 15:30 KFOT 131530Z AUTO 00000KT 10SM OVC004 08/08 A3010 RMK AO1
 
KNID - China Lake (naf), California, USA
Distance from station: SSE 259mi, 417km
Updated: Thu, 13-May-2021 7:56am PDT
Clear
Clear
 Wind from calm
Wind: Calm
Temperature: 75°F , 24°C
Dew Point: 25°F , -4°C
Humidity: 15%
Barometer: 30.01 inHg , 1016.3 hPa
Clouds: Clear
Visibility: 10 miles , 16 km
2021/05/13 14:56 KNID 131456Z 00000KT 10SM CLR 24/M04 A3001 RMK AO2 SLP140 T02441044 53012 $
KDRA - Desert R/Mercury, Nevada, USA
Distance from station: SE 262mi, 421km
Updated: Thu, 13-May-2021 7:53am PDT
Clear
Clear
 Wind from calm
Wind: Calm
Temperature: 73°F , 23°C
Dew Point: 18°F , -8°C
Humidity: 12%
Barometer: 30.06 inHg , 1017.9 hPa
Clouds: Clear
Visibility: 10 miles , 16 km
2021/05/13 14:53 KDRA 131453Z AUTO 00000KT 10SM CLR 23/M08 A3006 RMK AO2 SLP134 T02331078 53012
 
KELY - Ely, Nevada, USA
Distance from station: E 262mi, 421km
Updated: Thu, 13-May-2021 7:53am PDT
Clear
Clear
 Wind from S
Wind: S 10 mph , 17 km/h
Temperature: 54°F , 12°C
Dew Point: 19°F , -7°C
Humidity: 26%
Barometer: 30.25 inHg , 1024.4 hPa
Clouds: Clear
Visibility: 10 miles , 16 km
2021/05/13 14:53 KELY 131453Z AUTO 18009KT 10SM CLR 12/M07 A3025 RMK AO2 SLP168 T01221067 51008
KREO - Rome, Oregon, USA
Distance from station: NNE 263mi, 424km
Updated: Thu, 13-May-2021 7:52am PDT

 Wind from calm
Wind: Calm
Temperature: 63°F , 17°C
Dew Point: 28°F , -2°C
Humidity: 27%
Barometer: 30.14 inHg , 1020.7 hPa
2021/05/13 14:52 KREO 131452Z AUTO 00000KT 17/M02 A3014 RMK AO1 SLP173 T01671017 51012
 
KACV - Arcata/Eureka, California, USA
Distance from station: WNW 268mi, 431km
Updated: Thu, 13-May-2021 8:25am PDT
Mist, Overcast
Mist, Overcast
 Wind from NW
Wind: NW 6 mph , 9 km/h
Temperature: 48°F , 9°C
Wind Chill: 45°F , 7°C
Dew Point: 46°F , 8°C
Humidity: 94%
Barometer: 30.10 inHg , 1019.3 hPa
Summary: Mist
Clouds: Overcast
Visibility: 2 1/2 miles , 4 km
Cloud details: Overcast 300 ft
2021/05/13 15:25 KACV 131525Z AUTO 31005KT 2 1/2SM BR OVC003 09/08 A3010 RMK AO2 T00890083
KSBP - San Luis Obispo, California, USA
Distance from station: S 268mi, 431km
Updated: Thu, 13-May-2021 7:56am PDT
Overcast
Overcast
 Wind from SW
Wind: SW 5 mph , 7 km/h
Temperature: 54°F , 12°C
Dew Point: 52°F , 11°C
Humidity: 94%
Barometer: 30.06 inHg , 1017.9 hPa
Clouds: Overcast
Visibility: 7 miles , 11 km
Cloud details: Overcast 500 ft
2021/05/13 14:56 KSBP 131456Z 23004KT 7SM OVC005 12/11 A3006 RMK AO2 SLP179 T01170106 53007
 
KINS - Indian Springs, Nevada, USA
Distance from station: SE 279mi, 449km
Updated: Thu, 13-May-2021 7:58am PDT
Clear
Clear
 Wind from calm
Wind: Calm
Temperature: 70°F , 21°C
Dew Point: 12°F , -11°C
Humidity: 11%
Barometer: 30.07 inHg , 1018.3 hPa
Clouds: Clear
Visibility: 10 miles , 16 km
2021/05/13 14:58 KINS 131458Z AUTO 00000KT 10SM CLR 21/M11 A3007 RMK AO2 SLP138 T02061109 52012 $
KTSP - Tehachapi, California, USA
Distance from station: SSE 279mi, 449km
Updated: Thu, 13-May-2021 8:35am PDT
Clear
Clear
 Wind from WSW
Wind: WSW 5 mph , 7 km/h
Temperature: 72°F , 22°C
Dew Point: 32°F , 0°C
Humidity: 23%
Barometer: 30.14 inHg , 1020.7 hPa
Clouds: Clear
Visibility: 10 miles , 16 km
2021/05/13 15:35 KTSP 131535Z AUTO 25004KT 10SM CLR 22/00 A3014 RMK AO2
 
KMFR - Medford, Oregon, USA
Distance from station: NW 284mi, 457km
Updated: Thu, 13-May-2021 7:53am PDT
Clear
Clear
 Wind from calm
Wind: Calm
Temperature: 57°F , 14°C
Dew Point: 39°F , 4°C
Humidity: 51%
Barometer: 30.13 inHg , 1020.3 hPa
Clouds: Clear
Visibility: 10 miles , 16 km
2021/05/13 14:53 KMFR 131453Z 00000KT 10SM CLR 14/04 A3013 RMK AO2 SLP194 T01390044 53009
KMHV - Mojave, California, USA
Distance from station: SSE 288mi, 463km
Updated: Thu, 13-May-2021 8:20am PDT

 Wind from ESE
Wind: ESE 5 mph , 7 km/h
Temperature: 79°F , 26°C
Dew Point: 27°F , -3°C
Humidity: 15%
Barometer: 30.05 inHg , 1017.6 hPa
Visibility: 10 miles , 16 km
2021/05/13 15:20 KMHV 131520Z AUTO 12004KT 10SM 26/M03 A3005 RMK A01
 
KSMX - Santa Maria, California, USA
Distance from station: S 289mi, 465km
Updated: Thu, 13-May-2021 7:51am PDT
Mist, Overcast
Mist, Overcast
 Wind from NNW
Wind: NNW 3 mph , 6 km/h
Temperature: 52°F , 11°C
Dew Point: 50°F , 10°C
Humidity: 94%
Barometer: 30.07 inHg , 1018.3 hPa
Summary: Mist
Clouds: Overcast
Visibility: 4 miles , 6 km
Cloud details: Overcast 500 ft
2021/05/13 14:51 KSMX 131451Z 33003KT 4SM BR OVC005 11/10 A3007 RMK AO2 SLP187 T01110100 53012 $
K9L2 - Edwards N-Aux, California, USA
Distance from station: SSE 299mi, 482km
Updated: Thu, 13-May-2021 8:28am PDT
Clear
Clear
 Wind from S
Wind: S 6 mph , 9 km/h
Temperature: 72°F , 22°C
Dew Point: 32°F , 0°C
Humidity: 23%
Barometer: 30.03 inHg , 1016.9 hPa
Clouds: Clear
Visibility: 7 miles , 11 km
2021/05/13 15:28 K9L2 131528Z AUTO 17005KT 7SM CLR 22/00 A3003 RMK AO2 SLP146
Honor Flight NV - Honoring all of our Veterans CoCoRaHS (Community Collaborative Rain, Hail and Snow Network) Station Number: NV-DG-2 Live Lightning Map - USA Reno Skywarn Spotter ID: DO21 AlertID Southwestern Weather Network Carson Valley Community Food Closet - providing for the needs of our community



Do you have a Teacher in the family or are a teacher yourself?
Check out this new website for the Teacher Community.
(Click on the logo below)
Teacher 
		  Times Two Designs - providing  teacher tees & accessories for the teaching community

(Click on the Flag Counter logo below for details in new browser tab)
Flag Counter